createdAt,value
2018-09-22T00:01:56.809Z,1.40
2018-09-22T00:04:25.082Z,1.10
2018-09-22T00:06:53.565Z,1.20
2018-09-22T00:09:21.790Z,1.20
2018-09-22T00:11:50.259Z,1.20
2018-09-22T00:14:18.646Z,1.80
2018-09-22T00:16:47.219Z,2.57
2018-09-22T00:19:15.630Z,2.80
2018-09-22T00:21:43.992Z,2.60
2018-09-22T00:24:12.687Z,2.30
2018-09-22T00:26:40.950Z,2.30
2018-09-22T00:29:09.207Z,1.67
2018-09-22T00:31:37.547Z,1.80
2018-09-22T00:34:05.776Z,1.80
2018-09-22T00:36:34.221Z,1.60
2018-09-22T00:39:04.209Z,1.30
2018-09-22T00:41:32.611Z,1.80
2018-09-22T00:44:01.024Z,1.73
2018-09-22T00:46:29.624Z,1.00
2018-09-22T00:48:58.392Z,1.17
2018-09-22T00:51:26.693Z,1.20
2018-09-22T00:53:55.339Z,1.70
2018-09-22T00:56:23.463Z,1.40
2018-09-22T00:58:51.650Z,1.60
2018-09-22T01:01:20.033Z,1.50
2018-09-22T01:03:48.133Z,1.20
2018-09-22T01:06:16.527Z,1.40
2018-09-22T01:08:44.672Z,1.37
2018-09-22T01:11:12.784Z,1.30
2018-09-22T01:13:41.322Z,1.50
2018-09-22T01:16:09.945Z,1.50
2018-09-22T01:18:38.530Z,1.27
2018-09-22T01:21:07.033Z,1.17
2018-09-22T01:23:35.578Z,1.40
2018-09-22T01:26:04.082Z,1.30
2018-09-22T01:28:32.429Z,1.40
2018-09-22T01:31:00.589Z,1.20
2018-09-22T01:33:28.739Z,1.40
2018-09-22T01:35:57.288Z,1.50
2018-09-22T01:38:25.600Z,1.50
2018-09-22T01:40:53.956Z,1.40
2018-09-22T01:43:22.515Z,1.20
2018-09-22T02:23:37.666Z,1.57
2018-09-22T02:26:06.018Z,1.23
2018-09-22T02:28:34.286Z,1.40
2018-09-22T02:31:04.024Z,1.40
2018-09-22T02:33:32.726Z,1.60
2018-09-22T02:36:01.067Z,1.50
2018-09-22T02:38:29.582Z,1.50
2018-09-22T02:40:58.131Z,1.50
2018-09-22T02:43:26.515Z,1.13
2018-09-22T02:45:54.835Z,1.20
2018-09-22T02:48:23.019Z,1.23
2018-09-22T02:50:51.335Z,1.23
2018-09-22T02:53:19.779Z,1.30
2018-09-22T02:55:48.067Z,1.10
2018-09-22T02:58:16.699Z,1.00
2018-09-22T03:00:45.055Z,1.37
2018-09-22T03:03:13.263Z,1.13
2018-09-22T03:05:41.541Z,1.40
2018-09-22T03:08:10.008Z,1.03
2018-09-22T03:10:38.383Z,1.40
2018-09-22T03:13:06.574Z,1.23
2018-09-22T03:15:34.780Z,1.40
2018-09-22T03:18:03.164Z,1.33
2018-09-22T03:20:32.820Z,1.40
2018-09-22T03:23:00.973Z,1.30
2018-09-22T03:25:29.298Z,1.30
2018-09-22T03:27:57.470Z,1.10
2018-09-22T03:30:25.949Z,1.10
2018-09-22T03:32:54.124Z,1.30
2018-09-22T03:35:22.247Z,1.20
2018-09-22T03:37:50.370Z,1.47
2018-09-22T03:40:18.726Z,1.40
2018-09-22T03:42:46.905Z,1.33
2018-09-22T03:45:15.267Z,1.43
2018-09-22T03:47:43.417Z,1.40
2018-09-22T03:50:11.908Z,1.47
2018-09-22T03:52:40.046Z,1.37
2018-09-22T03:55:08.215Z,1.50
2018-09-22T03:57:36.355Z,1.47
2018-09-22T04:00:04.987Z,1.40
2018-09-22T04:02:33.230Z,1.20
2018-09-22T04:05:01.575Z,1.30
2018-09-22T04:07:29.949Z,1.20
2018-09-22T04:09:58.168Z,1.57
2018-09-22T04:12:26.376Z,1.67
2018-09-22T04:14:54.512Z,1.63
2018-09-22T04:17:22.701Z,1.30
2018-09-22T04:19:51.145Z,1.40
2018-09-22T04:22:19.465Z,1.67
2018-09-22T04:24:49.174Z,1.40
2018-09-22T04:27:17.397Z,1.40
2018-09-22T04:29:45.558Z,1.13
2018-09-22T04:32:14.065Z,1.50
2018-09-22T04:34:42.351Z,1.50
2018-09-22T04:37:10.866Z,1.60
2018-09-22T04:39:39.107Z,1.50
2018-09-22T04:42:07.324Z,1.30
2018-09-22T04:44:35.710Z,1.83
2018-09-22T04:47:04.054Z,1.60
2018-09-22T04:49:32.417Z,1.70
2018-09-22T04:52:00.674Z,1.60
2018-09-22T04:54:29.414Z,1.30
2018-09-22T04:56:57.650Z,1.40
2018-09-22T04:59:26.126Z,1.33
2018-09-22T05:01:54.443Z,1.37
2018-09-22T05:04:22.722Z,1.50
2018-09-22T05:06:51.055Z,1.20
2018-09-22T05:09:19.235Z,1.67
2018-09-22T05:11:47.921Z,1.50
2018-09-22T05:14:16.931Z,1.50
2018-09-22T05:16:45.347Z,1.47
2018-09-22T05:19:13.868Z,1.30
2018-09-22T05:21:42.496Z,1.53
2018-09-22T05:24:11.144Z,1.30
2018-09-22T05:26:39.452Z,1.40
2018-09-22T05:29:07.868Z,1.63
2018-09-22T05:31:36.111Z,1.30
2018-09-22T05:34:04.357Z,1.50
2018-09-22T05:36:32.565Z,1.70
2018-09-22T05:39:00.780Z,1.70
2018-09-22T05:41:28.976Z,1.80
2018-09-22T05:43:57.477Z,1.77
2018-09-22T05:46:25.820Z,1.80
2018-09-22T05:48:54.413Z,1.87
2018-09-22T05:51:23.117Z,1.60
2018-09-22T05:53:52.083Z,1.30
2018-09-22T05:56:22.733Z,1.50
2018-09-22T05:58:51.210Z,1.30
2018-09-22T06:01:20.006Z,1.70
2018-09-22T06:03:48.801Z,1.80
2018-09-22T06:06:17.851Z,1.50
2018-09-22T06:08:46.538Z,1.47
2018-09-22T06:11:15.186Z,1.50
2018-09-22T06:13:43.420Z,1.53
2018-09-22T06:16:11.775Z,1.80
2018-09-22T06:18:40.116Z,1.60
2018-09-22T06:21:08.944Z,1.73
2018-09-22T06:23:37.557Z,1.80
2018-09-22T06:26:06.675Z,1.90
2018-09-22T06:28:35.056Z,2.07
2018-09-22T06:31:03.470Z,1.93
2018-09-22T06:33:31.888Z,1.87
2018-09-22T06:36:01.050Z,1.73
2018-09-22T06:38:29.461Z,2.20
2018-09-22T06:40:57.827Z,1.80
2018-09-22T06:43:26.243Z,1.80
2018-09-22T06:45:54.489Z,1.60
2018-09-22T06:48:23.056Z,1.70
2018-09-22T06:50:51.429Z,1.80
2018-09-22T06:53:19.749Z,1.50
2018-09-22T06:55:48.341Z,1.50
2018-09-22T06:58:16.873Z,1.47
2018-09-22T07:00:46.907Z,1.37
2018-09-22T07:03:15.637Z,1.50
2018-09-22T07:05:43.889Z,1.97
2018-09-22T07:08:12.438Z,1.33
2018-09-22T07:10:40.931Z,1.50
2018-09-22T07:13:09.343Z,1.60
2018-09-22T07:15:38.123Z,1.63
2018-09-22T07:18:06.750Z,1.40
2018-09-22T07:20:34.923Z,1.57
2018-09-22T07:23:08.975Z,1.90
2018-09-22T07:25:37.167Z,1.30
2018-09-22T07:28:05.423Z,1.70
2018-09-22T07:30:33.627Z,1.57
2018-09-22T07:33:01.989Z,1.47
2018-09-22T07:35:30.503Z,1.53
2018-09-22T07:37:58.832Z,1.20
2018-09-22T07:40:27.203Z,1.43
2018-09-22T07:42:55.488Z,1.60
2018-09-22T07:45:25.104Z,1.30
2018-09-22T07:47:53.425Z,1.70
2018-09-22T07:50:21.784Z,1.40
2018-09-22T07:52:49.906Z,1.50
2018-09-22T07:55:18.553Z,1.67
2018-09-22T07:57:46.764Z,1.60
2018-09-22T08:00:15.137Z,1.77
2018-09-22T08:02:43.513Z,1.80
2018-09-22T08:05:11.933Z,1.50
2018-09-22T08:07:40.730Z,2.00
2018-09-22T08:10:08.987Z,1.57
2018-09-22T08:12:37.241Z,1.67
2018-09-22T08:15:06.379Z,1.40
2018-09-22T08:17:34.613Z,1.50
2018-09-22T08:20:02.921Z,1.90
2018-09-22T08:22:31.073Z,1.57
2018-09-22T08:24:59.313Z,1.40
2018-09-22T08:27:27.649Z,1.47
2018-09-22T08:29:55.553Z,1.43
2018-09-22T08:32:23.367Z,1.50
2018-09-22T08:34:51.116Z,1.63
2018-09-22T08:37:18.981Z,1.73
2018-09-22T08:39:46.684Z,1.60
2018-09-22T08:42:14.413Z,1.30
2018-09-22T08:44:42.256Z,1.30
2018-09-22T08:47:10.080Z,1.67
2018-09-22T08:49:38.016Z,5.70
2018-09-22T08:52:05.772Z,1.53
2018-09-22T08:54:33.512Z,1.93
2018-09-22T08:57:01.279Z,1.50
2018-09-22T08:59:29.086Z,1.53
2018-09-22T09:01:56.990Z,1.30
2018-09-22T09:04:24.833Z,1.50
2018-09-22T09:06:52.904Z,1.60
2018-09-22T09:09:21.747Z,1.60
2018-09-22T09:11:49.736Z,2.23
2018-09-22T09:14:17.528Z,1.43
2018-09-22T09:16:45.288Z,1.77
2018-09-22T09:19:13.036Z,1.27
2018-09-22T09:21:40.805Z,1.83
2018-09-22T09:24:08.517Z,1.50
2018-09-22T09:26:36.356Z,1.60
2018-09-22T09:29:04.157Z,1.83
2018-09-22T09:31:31.873Z,1.60
2018-09-22T09:33:59.686Z,1.70
2018-09-22T09:36:27.584Z,1.57
2018-09-22T09:38:59.409Z,1.33
2018-09-22T09:41:27.225Z,1.43
2018-09-22T09:43:56.040Z,1.60
2018-09-22T09:46:23.905Z,1.60
2018-09-22T09:48:51.689Z,1.50
2018-09-22T09:51:19.528Z,1.33
2018-09-22T09:53:47.274Z,1.47
2018-09-22T09:56:15.070Z,1.60
2018-09-22T09:58:44.330Z,1.47
2018-09-22T10:01:12.140Z,1.47
2018-09-22T10:03:39.990Z,1.40
2018-09-22T10:06:08.808Z,1.60
2018-09-22T10:08:36.859Z,1.47
2018-09-22T10:11:04.829Z,1.67
2018-09-22T10:13:32.772Z,1.50
2018-09-22T10:16:00.629Z,1.70
2018-09-22T10:18:28.390Z,1.63
2018-09-22T10:20:56.146Z,1.67
2018-09-22T10:23:23.987Z,1.70
2018-09-22T10:25:51.827Z,1.87
2018-09-22T10:28:19.628Z,2.80
2018-09-22T10:30:47.469Z,1.40
2018-09-22T10:33:15.249Z,1.67
2018-09-22T10:35:43.008Z,1.60
2018-09-22T10:38:10.811Z,1.27
2018-09-22T10:40:39.393Z,1.50
2018-09-22T10:43:07.368Z,1.50
2018-09-22T10:45:35.269Z,1.40
2018-09-22T10:48:03.115Z,1.50
2018-09-22T10:50:31.010Z,1.50
2018-09-22T10:52:58.886Z,1.57
2018-09-22T10:55:26.777Z,1.60
2018-09-22T10:57:54.517Z,1.43
2018-09-22T11:00:23.653Z,1.23
2018-09-22T11:02:51.509Z,1.47
2018-09-22T11:05:19.661Z,1.70
2018-09-22T11:07:47.394Z,1.33
2018-09-22T11:10:15.204Z,1.57
2018-09-22T11:12:42.954Z,1.50
2018-09-22T11:15:10.677Z,2.70
2018-09-22T11:17:42.536Z,2.47
2018-09-22T11:20:10.274Z,3.50
2018-09-22T11:22:38.061Z,1.40
2018-09-22T11:25:06.379Z,1.40
2018-09-22T11:27:34.412Z,1.33
2018-09-22T11:30:02.211Z,1.50
2018-09-22T11:32:31.127Z,1.30
2018-09-22T11:34:59.095Z,1.30
2018-09-22T11:37:32.911Z,1.40
2018-09-22T11:40:04.744Z,1.20
2018-09-22T11:42:32.688Z,1.43
2018-09-22T11:45:00.468Z,1.30
2018-09-22T11:47:35.446Z,1.20
2018-09-22T11:50:04.353Z,1.40
2018-09-22T11:52:40.601Z,1.43
2018-09-22T11:55:09.891Z,1.67
2018-09-22T11:57:37.775Z,1.10
2018-09-22T12:00:05.888Z,1.50
2018-09-22T12:02:33.858Z,1.40
2018-09-22T12:05:03.455Z,1.27
2018-09-22T12:07:31.206Z,1.30
2018-09-22T12:09:59.055Z,1.40
2018-09-22T12:12:36.202Z,1.77
2018-09-22T12:15:04.121Z,1.20
2018-09-22T12:17:31.959Z,1.50
2018-09-22T12:20:00.822Z,1.37
2018-09-22T12:22:28.577Z,1.43
2018-09-22T12:24:56.845Z,1.80
2018-09-22T12:27:24.653Z,1.60
2018-09-22T12:29:52.540Z,1.40
2018-09-22T12:32:20.550Z,2.10
2018-09-22T12:34:48.330Z,2.20
2018-09-22T12:37:16.152Z,1.50
2018-09-22T12:39:44.171Z,1.30
2018-09-22T12:42:11.974Z,1.00
2018-09-22T12:44:39.696Z,1.30
2018-09-22T12:47:07.829Z,1.20
2018-09-22T12:49:35.653Z,1.23
2018-09-22T12:52:03.425Z,1.50
2018-09-22T12:54:31.310Z,1.80
2018-09-22T12:56:59.104Z,1.43
2018-09-22T12:59:29.223Z,1.63
2018-09-22T13:01:57.441Z,1.40
2018-09-22T13:04:25.412Z,1.20
2018-09-22T13:06:53.196Z,1.23
2018-09-22T13:09:23.782Z,1.37
2018-09-22T13:11:51.548Z,1.30
2018-09-22T13:14:19.268Z,1.20
2018-09-22T13:16:47.091Z,1.00
2018-09-22T13:19:14.807Z,3.73
2018-09-22T13:21:46.269Z,1.30
2018-09-22T13:24:13.998Z,1.20
2018-09-22T13:26:41.818Z,1.10
2018-09-22T13:29:09.827Z,1.10
2018-09-22T13:31:37.673Z,1.03
2018-09-22T13:34:05.432Z,1.30
2018-09-22T13:36:33.285Z,1.40
2018-09-22T13:39:01.339Z,1.23
2018-09-22T13:41:29.099Z,1.30
2018-09-22T13:43:56.805Z,1.37
2018-09-22T13:46:24.590Z,1.13
2018-09-22T13:48:52.724Z,1.30
2018-09-22T13:51:20.785Z,1.50
2018-09-22T13:53:48.700Z,1.17
2018-09-22T13:56:16.630Z,1.10
2018-09-22T13:58:44.437Z,1.10
2018-09-22T14:01:12.200Z,1.10
2018-09-22T14:03:39.947Z,1.10
2018-09-22T14:06:07.866Z,1.00
2018-09-22T14:08:35.660Z,1.07
2018-09-22T14:11:03.485Z,1.27
2018-09-22T14:13:31.373Z,1.30
2018-09-22T14:15:59.144Z,1.30
2018-09-22T14:18:26.894Z,1.17
2018-09-22T14:20:54.752Z,1.27
2018-09-22T14:23:22.565Z,1.53
2018-09-22T14:25:50.329Z,2.20
2018-09-22T14:28:18.141Z,1.67
2018-09-22T14:30:46.073Z,1.30
2018-09-22T14:33:13.890Z,1.13
2018-09-22T14:35:41.698Z,1.03
2018-09-22T14:38:09.580Z,1.13
2018-09-22T14:40:37.799Z,1.20
2018-09-22T14:43:06.221Z,1.10
2018-09-22T14:45:34.105Z,1.43
2018-09-22T14:48:01.862Z,1.30
2018-09-22T14:50:29.757Z,1.40
2018-09-22T14:52:57.541Z,1.10
2018-09-22T14:55:26.469Z,1.33
2018-09-22T14:57:58.116Z,1.23
2018-09-22T15:00:26.608Z,1.20
2018-09-22T15:02:54.336Z,1.20
2018-09-22T15:05:22.154Z,1.00
2018-09-22T15:07:50.043Z,1.20
2018-09-22T15:10:18.016Z,1.40
2018-09-22T15:12:45.844Z,1.20
2018-09-22T15:15:13.788Z,1.53
2018-09-22T15:17:41.722Z,1.30
2018-09-22T15:20:09.597Z,1.20
2018-09-22T15:22:37.405Z,1.57
2018-09-22T15:25:05.257Z,1.60
2018-09-22T15:27:33.073Z,1.33
2018-09-22T15:30:01.017Z,2.87
2018-09-22T15:32:29.113Z,2.70
2018-09-22T15:34:56.994Z,2.73
2018-09-22T15:37:25.105Z,2.87
2018-09-22T15:39:52.977Z,1.50
2018-09-22T15:42:20.833Z,1.90
2018-09-22T15:44:48.690Z,2.10
2018-09-22T15:47:16.488Z,1.50
2018-09-22T15:49:44.268Z,1.33
2018-09-22T15:52:12.258Z,1.77
2018-09-22T15:54:40.267Z,1.33
2018-09-22T15:57:08.165Z,1.57
2018-09-22T15:59:35.998Z,1.23
2018-09-22T16:02:03.825Z,1.47
2018-09-22T16:04:31.649Z,1.60
2018-09-22T16:06:59.494Z,1.40
2018-09-22T16:09:27.359Z,1.70
2018-09-22T16:11:55.191Z,1.57
2018-09-22T16:14:23.066Z,1.53
2018-09-22T16:16:51.063Z,1.90
2018-09-22T16:19:18.933Z,2.10
2018-09-22T16:21:46.791Z,3.33
2018-09-22T16:24:16.582Z,2.20
2018-09-22T16:26:44.420Z,2.10
2018-09-22T16:29:12.258Z,1.97
2018-09-22T16:31:40.198Z,2.10
2018-09-22T16:34:08.574Z,1.60
2018-09-22T16:36:36.404Z,2.20
2018-09-22T16:39:06.877Z,1.87
2018-09-22T16:41:34.693Z,1.20
2018-09-22T16:44:02.744Z,1.20
2018-09-22T16:46:30.528Z,1.50
2018-09-22T16:48:58.389Z,1.30
2018-09-22T16:51:26.180Z,1.43
2018-09-22T16:53:53.982Z,1.50
2018-09-22T16:56:22.297Z,1.90
2018-09-22T16:58:50.150Z,1.93
2018-09-22T17:01:17.949Z,1.90
2018-09-22T17:03:45.755Z,1.47
2018-09-22T17:06:13.656Z,2.00
2018-09-22T17:08:41.636Z,2.30
2018-09-22T17:11:09.428Z,1.80
2018-09-22T17:13:37.319Z,1.57
2018-09-22T17:16:05.577Z,2.13
2018-09-22T17:18:33.393Z,1.90
2018-09-22T17:21:01.176Z,1.50
2018-09-22T17:23:29.053Z,1.50
2018-09-22T17:25:56.828Z,1.50
2018-09-22T17:28:24.760Z,1.33
2018-09-22T17:30:52.501Z,1.70
2018-09-22T17:33:20.431Z,1.67
2018-09-22T17:35:48.349Z,1.50
2018-09-22T17:38:16.102Z,1.60
2018-09-22T17:40:43.878Z,1.30
2018-09-22T17:43:12.888Z,1.80
2018-09-22T17:45:41.106Z,2.10
2018-09-22T17:48:13.166Z,2.50
2018-09-22T17:50:41.090Z,2.87
2018-09-22T17:53:08.993Z,3.10
2018-09-22T17:55:37.506Z,2.20
2018-09-22T17:58:05.858Z,2.17
2018-09-22T18:00:33.924Z,1.77
2018-09-22T18:03:02.165Z,3.73
2018-09-22T18:05:30.379Z,2.87
2018-09-22T18:07:58.196Z,2.30
2018-09-22T18:10:25.972Z,2.37
2018-09-22T18:12:54.170Z,2.40
2018-09-22T18:15:21.962Z,1.97
2018-09-22T18:17:49.707Z,2.20
2018-09-22T18:20:17.569Z,2.17
2018-09-22T18:22:46.734Z,1.53
2018-09-22T18:25:15.054Z,2.10
2018-09-22T18:27:42.908Z,2.10
2018-09-22T18:30:10.725Z,2.30
2018-09-22T18:32:38.453Z,1.83
2018-09-22T18:35:06.607Z,2.07
2018-09-22T18:37:34.435Z,2.00
2018-09-22T18:40:03.176Z,2.30
2018-09-22T18:42:30.953Z,1.77
2018-09-22T18:44:58.950Z,2.00
2018-09-22T18:47:27.759Z,1.70
2018-09-22T18:49:56.018Z,1.40
2018-09-22T18:52:24.997Z,1.77
2018-09-22T18:54:52.878Z,1.60
2018-09-22T18:57:20.831Z,1.80
2018-09-22T18:59:48.689Z,1.80
2018-09-22T19:02:16.456Z,1.90
2018-09-22T19:04:44.259Z,1.90
2018-09-22T19:07:12.042Z,2.23
2018-09-22T19:09:39.824Z,2.13
2018-09-22T19:12:07.606Z,2.20
2018-09-22T19:16:43.339Z,2.27
2018-09-22T19:19:16.913Z,2.23
2018-09-22T19:21:54.566Z,2.10
2018-09-22T19:24:27.473Z,2.00
2018-09-22T19:26:59.341Z,2.00
2018-09-22T19:29:34.781Z,1.90
2018-09-22T19:32:07.537Z,1.67
2018-09-22T19:34:56.785Z,2.10
2018-09-22T19:37:29.709Z,1.70
2018-09-22T19:40:08.275Z,1.70
2018-09-22T19:42:40.925Z,1.93
2018-09-22T19:45:17.373Z,2.00
2018-09-22T19:47:50.467Z,2.27
2018-09-22T19:50:22.285Z,1.83
2018-09-22T19:52:51.336Z,1.87
2018-09-22T19:55:19.424Z,1.90
2018-09-22T19:57:47.514Z,1.80
2018-09-22T20:00:15.369Z,1.57
2018-09-22T20:02:43.111Z,1.93
2018-09-22T20:05:10.898Z,1.60
2018-09-22T20:07:38.866Z,1.90
2018-09-22T20:10:06.717Z,1.87
2018-09-22T20:12:34.504Z,1.70
2018-09-22T20:15:02.291Z,1.60
2018-09-22T20:17:30.587Z,1.90
2018-09-22T20:19:58.377Z,2.07
2018-09-22T20:22:26.150Z,2.00
2018-09-22T20:24:53.989Z,2.50
2018-09-22T20:27:21.891Z,2.10
2018-09-22T20:29:49.775Z,2.30
2018-09-22T20:32:17.696Z,2.40
2018-09-22T20:34:45.469Z,2.40
2018-09-22T20:37:13.336Z,2.10
2018-09-22T20:39:41.182Z,1.80
2018-09-22T20:42:08.994Z,2.07
2018-09-22T20:44:36.819Z,2.10
2018-09-22T20:47:04.821Z,2.13
2018-09-22T20:49:32.651Z,1.77
2018-09-22T20:52:00.584Z,1.90
2018-09-22T20:54:28.349Z,2.03
2018-09-22T20:56:56.217Z,2.20
2018-09-22T20:59:24.178Z,2.03
2018-09-22T21:01:52.284Z,1.97
2018-09-22T21:04:20.041Z,2.93
2018-09-22T21:06:47.966Z,2.27
2018-09-22T21:09:15.835Z,2.43
2018-09-22T21:11:43.701Z,2.60
2018-09-22T21:14:11.817Z,2.67
2018-09-22T21:16:39.788Z,2.73
2018-09-22T21:19:07.523Z,2.27
2018-09-22T21:21:35.398Z,2.90
2018-09-22T21:24:03.222Z,3.33
2018-09-22T21:26:31.101Z,3.10
2018-09-22T21:28:59.016Z,2.73
2018-09-22T21:31:26.803Z,2.77
2018-09-22T21:33:54.568Z,2.70
2018-09-22T21:36:23.164Z,2.40
2018-09-22T21:38:51.030Z,2.83
2018-09-22T21:41:18.824Z,2.63
2018-09-22T21:43:46.661Z,2.83
2018-09-22T21:46:14.436Z,2.13
2018-09-22T21:48:42.172Z,2.80
2018-09-22T21:51:10.002Z,2.47
2018-09-22T21:53:37.776Z,2.73
2018-09-22T21:56:05.529Z,2.90
2018-09-22T21:58:33.316Z,2.90
2018-09-22T22:01:01.586Z,3.37
2018-09-22T22:03:29.387Z,3.10
2018-09-22T22:05:57.169Z,2.83
2018-09-22T22:08:24.981Z,3.30
2018-09-22T22:10:52.857Z,3.13
2018-09-22T22:13:20.752Z,2.77
2018-09-22T22:15:48.641Z,2.80
2018-09-22T22:18:16.593Z,3.10
2018-09-22T22:20:44.480Z,2.77
2018-09-22T22:23:12.284Z,2.97
2018-09-22T22:25:40.020Z,3.00
2018-09-22T22:28:07.817Z,2.80
2018-09-22T22:30:35.603Z,2.67
2018-09-22T22:33:03.423Z,2.03
2018-09-22T22:35:31.462Z,2.07
2018-09-22T22:37:59.229Z,2.10
2018-09-22T22:40:27.109Z,1.90
2018-09-22T22:42:54.889Z,2.30
2018-09-22T22:45:22.978Z,2.00
2018-09-22T22:47:50.740Z,2.00
2018-09-22T22:50:19.040Z,1.70
2018-09-22T22:52:47.170Z,2.17
2018-09-22T22:55:14.992Z,2.03
2018-09-22T22:57:42.978Z,2.10
2018-09-22T23:00:11.795Z,1.67
2018-09-22T23:02:40.383Z,2.53
2018-09-22T23:05:08.515Z,1.90
2018-09-22T23:07:36.462Z,2.10
2018-09-22T23:10:04.337Z,2.00
2018-09-22T23:12:32.216Z,1.97
2018-09-22T23:15:00.121Z,2.13
2018-09-22T23:17:27.958Z,2.00
2018-09-22T23:19:55.815Z,1.83
2018-09-22T23:22:23.789Z,2.50
2018-09-22T23:24:51.664Z,1.53
2018-09-22T23:27:19.517Z,1.30
2018-09-22T23:29:47.332Z,1.40
2018-09-22T23:32:15.225Z,1.43
2018-09-22T23:34:43.288Z,1.30
2018-09-22T23:37:11.064Z,1.37
2018-09-22T23:39:38.888Z,1.70
2018-09-22T23:42:06.781Z,1.30
2018-09-22T23:44:35.172Z,1.27
2018-09-22T23:47:03.313Z,1.20
2018-09-22T23:49:31.072Z,1.10
2018-09-22T23:52:00.127Z,1.20
2018-09-22T23:54:28.093Z,1.43
2018-09-22T23:56:55.934Z,1.20
2018-09-22T23:59:23.780Z,1.57
